Time;durP1;ratioP1;P1;durP2;ratioP2;P2;SDS_P1;SDS_P2;PMS_P1;PMS_P2;Temp;Humidity;BMP_temperature;BMP_pressure;BME280_temperature;BME280_humidity;BME280_pressure;Samples;Min_cycle;Max_cycle;Signal;HPM_P1;HPM_P2
2021/03/12 00:01:39;;;;;;;67.30;35.52;;;;;;;3.59;78.71;97470.69;2161166;82;21726;-68
2021/03/12 00:04:41;;;;;;;63.90;32.63;;;;;;;3.54;78.58;97476.61;2161182;82;21163;-68
2021/03/12 00:07:44;;;;;;;64.82;33.00;;;;;;;3.50;78.88;97494.54;2161162;82;21718;-70
2021/03/12 00:10:46;;;;;;;71.60;34.13;;;;;;;3.46;78.65;97500.33;2161319;82;21714;-69
2021/03/12 00:13:48;;;;;;;65.45;33.45;;;;;;;3.45;78.67;97517.66;2161045;82;21615;-67
2021/03/12 00:16:49;;;;;;;68.65;32.53;;;;;;;3.49;78.73;97513.12;2161018;82;21154;-67
2021/03/12 00:19:51;;;;;;;73.28;34.75;;;;;;;3.49;79.02;97498.03;2161058;82;21143;-68
2021/03/12 00:22:53;;;;;;;75.78;35.25;;;;;;;3.49;78.77;97504.52;2161073;82;21178;-67
2021/03/12 00:25:55;;;;;;;68.02;33.80;;;;;;;3.45;78.90;97476.64;2161013;82;21155;-69
2021/03/12 00:28:57;;;;;;;67.75;33.95;;;;;;;3.44;78.98;97474.96;2161077;82;21163;-68
2021/03/12 00:31:59;;;;;;;66.90;33.18;;;;;;;3.43;79.16;97468.95;2161078;82;21152;-67
2021/03/12 00:35:01;;;;;;;70.12;34.63;;;;;;;3.44;79.18;97487.92;2161082;82;21139;-67
2021/03/12 00:38:03;;;;;;;65.83;33.13;;;;;;;3.49;79.66;97491.56;2161080;82;21142;-68
2021/03/12 00:41:05;;;;;;;62.15;31.40;;;;;;;3.52;79.64;97483.17;2161055;82;21163;-66
2021/03/12 00:44:07;;;;;;;60.08;29.32;;;;;;;3.51;79.58;97472.89;2161078;82;21120;-66
2021/03/12 00:47:09;;;;;;;62.48;31.48;;;;;;;3.55;80.57;97462.70;2161015;82;21547;-66
2021/03/12 00:50:11;;;;;;;63.73;30.90;;;;;;;3.55;79.93;97467.45;2161048;82;21119;-67
2021/03/12 00:53:13;;;;;;;63.65;32.10;;;;;;;3.58;80.35;97472.94;2161294;82;21313;-67
2021/03/12 00:56:15;;;;;;;64.82;30.90;;;;;;;3.64;80.30;97473.41;2161354;82;21274;-66
2021/03/12 00:59:17;;;;;;;62.70;29.90;;;;;;;3.66;80.45;97464.25;2160995;81;21139;-67
2021/03/12 01:02:19;;;;;;;60.35;29.12;;;;;;;3.70;80.52;97479.20;2161041;82;21151;-69
2021/03/12 01:05:21;;;;;;;62.78;31.00;;;;;;;3.74;80.98;97485.42;2161028;82;21105;-67
2021/03/12 01:08:23;;;;;;;65.25;31.17;;;;;;;3.76;80.17;97479.68;2161258;82;21717;-68
2021/03/12 01:11:25;;;;;;;61.00;28.38;;;;;;;3.82;81.23;97495.37;2161265;82;21282;-67
2021/03/12 01:14:27;;;;;;;60.17;27.35;;;;;;;3.83;80.71;97487.97;2161255;82;21277;-68
2021/03/12 01:17:30;;;;;;;60.10;27.85;;;;;;;3.81;81.04;97476.86;2161545;82;21285;-68
2021/03/12 01:20:32;;;;;;;54.63;25.48;;;;;;;3.92;81.02;97499.16;2161178;82;21279;-67
2021/03/12 01:23:34;;;;;;;53.83;26.57;;;;;;;3.97;81.13;97489.81;2161226;82;21578;-67
2021/03/12 01:26:36;;;;;;;58.40;27.52;;;;;;;3.99;80.34;97486.22;2161198;82;21725;-67
2021/03/12 01:29:38;;;;;;;58.33;26.23;;;;;;;4.03;80.84;97470.00;2161327;82;21726;-67
2021/03/12 01:32:40;;;;;;;55.23;24.87;;;;;;;4.04;80.04;97461.75;2161254;82;21269;-68
2021/03/12 01:35:42;;;;;;;60.12;27.20;;;;;;;4.04;80.91;97469.09;2161200;82;21720;-68
2021/03/12 01:38:44;;;;;;;54.60;24.07;;;;;;;4.06;80.46;97478.91;2161245;82;21296;-71
2021/03/12 01:41:46;;;;;;;57.17;26.00;;;;;;;4.06;81.12;97472.42;2161536;82;21286;-71
2021/03/12 01:44:48;;;;;;;52.00;23.35;;;;;;;4.07;81.18;97471.51;2161446;82;21292;-71
2021/03/12 01:47:50;;;;;;;52.33;24.27;;;;;;;4.11;81.03;97451.42;2161491;82;21303;-69
2021/03/12 01:50:52;;;;;;;52.73;24.23;;;;;;;4.11;80.77;97457.91;2161189;82;21269;-71
2021/03/12 01:53:53;;;;;;;57.43;25.70;;;;;;;4.11;80.95;97463.93;2140441;82;21285;-71
2021/03/12 01:56:55;;;;;;;56.55;24.95;;;;;;;4.12;80.77;97468.20;2161150;82;21276;-67
2021/03/12 01:59:57;;;;;;;50.73;21.42;;;;;;;4.12;80.64;97457.83;2178617;81;21749;-66
2021/03/12 02:03:00;;;;;;;49.45;21.55;;;;;;;4.17;81.57;97458.86;2179045;82;21308;-67
2021/03/12 02:06:02;;;;;;;49.35;23.30;;;;;;;4.21;81.23;97467.29;2178604;81;21289;-66
2021/03/12 02:09:04;;;;;;;49.40;22.95;;;;;;;4.19;80.75;97467.38;2179003;81;21171;-67
2021/03/12 02:12:06;;;;;;;50.88;23.32;;;;;;;4.18;81.19;97472.66;2178654;81;21285;-65
2021/03/12 02:15:08;;;;;;;53.63;23.77;;;;;;;4.19;80.48;97451.80;2178519;81;21320;-66
2021/03/12 02:18:10;;;;;;;52.10;24.77;;;;;;;4.16;80.67;97450.69;2178839;81;21142;-66
2021/03/12 02:21:12;;;;;;;49.03;22.67;;;;;;;4.19;80.89;97442.72;2178571;82;21317;-66
2021/03/12 02:24:14;;;;;;;50.03;23.07;;;;;;;4.19;80.40;97442.72;2178615;81;21281;-66
2021/03/12 02:27:16;;;;;;;50.92;23.32;;;;;;;4.16;80.28;97446.80;2178601;81;21268;-66
2021/03/12 02:30:17;;;;;;;48.02;22.73;;;;;;;4.16;81.16;97448.09;2178601;81;21300;-66
2021/03/12 02:33:22;;;;;;;46.55;22.35;;;;;;;4.15;81.04;97447.27;2150923;82;21273;-68
2021/03/12 02:36:24;;;;;;;46.02;21.12;;;;;;;4.13;80.79;97437.89;2178415;81;21289;-67
2021/03/12 02:39:26;;;;;;;47.48;21.55;;;;;;;4.10;81.38;97438.89;2178614;81;21284;-68
2021/03/12 02:42:31;;;;;;;48.63;23.15;;;;;;;4.08;81.19;97436.86;2178357;82;21190;-67
2021/03/12 02:45:33;;;;;;;47.05;21.57;;;;;;;4.05;81.43;97419.31;2178593;81;21151;-68
2021/03/12 02:48:35;;;;;;;45.92;20.20;;;;;;;4.05;81.53;97443.97;2178924;81;21162;-70
2021/03/12 02:51:37;;;;;;;52.23;23.27;;;;;;;4.03;81.75;97453.61;2178589;82;21296;-68
2021/03/12 02:54:38;;;;;;;50.43;22.52;;;;;;;4.01;81.15;97462.78;2178660;81;21716;-70
2021/03/12 02:57:40;;;;;;;50.65;22.22;;;;;;;4.01;81.40;97473.60;2151091;82;21724;-66
2021/03/12 03:00:42;;;;;;;50.38;22.62;;;;;;;4.00;81.57;97464.98;2178572;81;21289;-71
2021/03/12 03:03:44;;;;;;;53.63;23.75;;;;;;;3.99;81.38;97461.57;2178926;81;21134;-69
2021/03/12 03:06:46;;;;;;;50.63;22.55;;;;;;;4.01;81.47;97471.00;2178556;81;21257;-70
2021/03/12 03:09:49;;;;;;;57.80;25.75;;;;;;;4.00;82.00;97466.29;2178564;82;21590;-71
2021/03/12 03:12:51;;;;;;;60.92;27.45;;;;;;;4.01;82.25;97455.00;2178526;81;21708;-69
2021/03/12 03:15:53;;;;;;;45.95;20.85;;;;;;;4.02;82.15;97470.09;2178505;81;21312;-68
2021/03/12 03:18:55;;;;;;;69.27;30.32;;;;;;;4.04;82.62;97478.61;2178556;81;21284;-69
2021/03/12 03:21:57;;;;;;;46.77;20.92;;;;;;;4.06;82.28;97471.13;2179004;81;21284;-71
2021/03/12 03:24:59;;;;;;;45.30;20.32;;;;;;;4.11;83.04;97476.08;2178607;81;21292;-68
2021/03/12 03:28:01;;;;;;;44.80;21.75;;;;;;;4.13;82.88;97475.05;2178605;81;21288;-67
2021/03/12 03:31:03;;;;;;;47.30;21.52;;;;;;;4.18;82.29;97481.74;2178514;81;21574;-68
2021/03/12 03:34:05;;;;;;;49.75;23.07;;;;;;;4.22;82.33;97485.84;2178546;81;21139;-67
2021/03/12 03:37:07;;;;;;;47.67;21.77;;;;;;;4.25;82.21;97503.83;2178838;81;21143;-67
2021/03/12 03:40:09;;;;;;;45.83;21.77;;;;;;;4.26;82.06;97492.53;2178709;81;21292;-69
2021/03/12 03:43:11;;;;;;;45.08;21.48;;;;;;;4.26;81.49;97493.83;2178510;81;21292;-67
2021/03/12 03:46:13;;;;;;;45.20;20.72;;;;;;;4.29;81.51;97493.66;2178863;81;21154;-66
2021/03/12 03:49:15;;;;;;;42.48;19.55;;;;;;;4.28;81.68;97486.34;2179006;81;21158;-67
2021/03/12 03:52:17;;;;;;;48.87;21.10;;;;;;;4.26;81.37;97475.19;2178537;81;21570;-66
2021/03/12 03:55:20;;;;;;;41.90;19.00;;;;;;;4.28;81.54;97475.10;2178373;81;21273;-67
2021/03/12 03:58:22;;;;;;;47.98;21.02;;;;;;;4.26;82.16;97478.26;2178549;81;21308;-68
2021/03/12 04:01:24;;;;;;;47.00;21.93;;;;;;;4.25;81.58;97485.66;2178471;81;21716;-67
2021/03/12 04:04:26;;;;;;;42.65;21.40;;;;;;;4.23;81.62;97488.34;2178515;81;21293;-66
2021/03/12 04:07:28;;;;;;;48.92;22.35;;;;;;;4.21;81.49;97490.65;2178388;81;21301;-66
2021/03/12 04:10:30;;;;;;;44.30;21.90;;;;;;;4.21;81.57;97470.73;2178456;81;21284;-68
2021/03/12 04:13:32;;;;;;;52.50;24.98;;;;;;;4.21;81.67;97460.36;2178848;81;21281;-67
2021/03/12 04:16:33;;;;;;;57.48;28.55;;;;;;;4.21;81.52;97460.80;2178468;81;21272;-67
2021/03/12 04:19:35;;;;;;;52.58;25.65;;;;;;;4.21;81.58;97468.59;2150865;82;21260;-67
2021/03/12 04:22:37;;;;;;;54.00;26.37;;;;;;;4.23;82.06;97475.37;2178506;81;21336;-68
2021/03/12 04:25:41;;;;;;;56.13;25.88;;;;;;;4.24;81.58;97476.20;2150671;82;21588;-68
2021/03/12 04:28:43;;;;;;;52.83;25.68;;;;;;;4.24;82.19;97468.41;2178382;81;21292;-66
2021/03/12 04:31:45;;;;;;;54.77;26.05;;;;;;;4.24;82.27;97491.77;2178605;81;21312;-67
2021/03/12 04:34:47;;;;;;;51.10;24.10;;;;;;;4.23;82.21;97487.52;2178694;81;21300;-67
2021/03/12 04:37:49;;;;;;;53.75;24.43;;;;;;;4.22;82.68;97502.71;2178824;81;21162;-67
2021/03/12 04:40:51;;;;;;;47.55;23.22;;;;;;;4.19;82.73;97498.52;2178432;81;21261;-66
2021/03/12 04:43:54;;;;;;;49.40;24.10;;;;;;;4.20;82.66;97501.50;2178588;81;21273;-66
2021/03/12 04:46:56;;;;;;;49.40;24.37;;;;;;;4.21;82.84;97505.78;2178491;81;21158;-66
2021/03/12 04:49:58;;;;;;;47.05;22.10;;;;;;;4.24;82.53;97506.05;2178595;81;21728;-67
2021/03/12 04:53:00;;;;;;;50.45;23.92;;;;;;;4.25;82.43;97505.98;2178490;81;21716;-66
2021/03/12 04:56:01;;;;;;;46.58;23.25;;;;;;;4.28;82.53;97502.36;2178426;81;21724;-67
2021/03/12 04:59:03;;;;;;;54.15;24.65;;;;;;;4.26;82.49;97505.04;2178420;81;21281;-66
2021/03/12 05:02:06;;;;;;;47.10;22.58;;;;;;;4.27;82.83;97511.09;2178408;81;21745;-66
2021/03/12 05:05:08;;;;;;;72.55;34.15;;;;;;;4.27;82.50;97505.42;2178410;81;21784;-66
2021/03/12 05:08:10;;;;;;;46.28;21.65;;;;;;;4.28;82.45;97499.32;2178452;81;21712;-67
2021/03/12 05:11:12;;;;;;;47.75;22.87;;;;;;;4.29;83.01;97511.83;2178469;81;21280;-66
2021/03/12 05:14:14;;;;;;;45.83;22.32;;;;;;;4.30;82.62;97508.31;2178476;81;21304;-67
2021/03/12 05:17:16;;;;;;;44.33;21.80;;;;;;;4.32;82.56;97504.72;2178430;81;21745;-66
2021/03/12 05:20:18;;;;;;;47.75;21.62;;;;;;;4.37;82.85;97516.13;2178465;81;21312;-66
2021/03/12 05:23:20;;;;;;;46.33;22.30;;;;;;;4.40;82.79;97517.25;2178771;81;21288;-68
2021/03/12 05:26:22;;;;;;;50.43;21.73;;;;;;;4.44;82.93;97512.70;2178784;81;21336;-68
2021/03/12 05:29:24;;;;;;;45.10;21.75;;;;;;;4.45;82.74;97505.30;2178414;81;21292;-66
2021/03/12 05:32:26;;;;;;;45.30;21.65;;;;;;;4.46;83.53;97509.10;2150636;82;21736;-66
2021/03/12 05:35:28;;;;;;;43.00;19.77;;;;;;;4.45;83.67;97503.55;2178425;81;21157;-67
2021/03/12 05:38:30;;;;;;;44.60;19.95;;;;;;;4.45;83.67;97503.55;2178543;81;21701;-67
2021/03/12 05:41:32;;;;;;;43.92;21.17;;;;;;;4.53;84.02;97520.45;2178660;81;21737;-66
2021/03/12 05:44:34;;;;;;;42.00;19.52;;;;;;;4.51;83.65;97510.98;2178419;81;21268;-66
2021/03/12 05:47:36;;;;;;;46.80;21.05;;;;;;;4.51;84.20;97538.25;2178759;81;21269;-68
2021/03/12 05:50:38;;;;;;;49.08;21.97;;;;;;;4.48;84.97;97544.06;2178409;81;21130;-67
2021/03/12 05:53:40;;;;;;;46.37;19.23;;;;;;;4.42;85.53;97547.02;2178572;81;21296;-66
2021/03/12 05:56:42;;;;;;;42.23;17.27;;;;;;;4.41;86.45;97537.55;2178550;81;21301;-67
2021/03/12 05:59:44;;;;;;;39.27;15.40;;;;;;;4.42;86.67;97548.31;2178640;81;21296;-67
2021/03/12 06:02:46;;;;;;;37.23;14.50;;;;;;;4.48;86.60;97551.86;2150798;82;21701;-67
2021/03/12 06:05:48;;;;;;;36.70;15.45;;;;;;;4.53;86.60;97578.41;2178580;82;21139;-66
2021/03/12 06:08:50;;;;;;;30.15;12.03;;;;;;;4.53;86.39;97587.98;2178723;81;21749;-67
2021/03/12 06:11:52;;;;;;;36.28;13.58;;;;;;;4.56;86.40;97580.01;2178632;81;21134;-68
2021/03/12 06:14:54;;;;;;;37.83;16.23;;;;;;;4.63;86.23;97585.23;2178969;81;21166;-67
2021/03/12 06:17:56;;;;;;;35.28;14.98;;;;;;;4.66;86.26;97591.55;2150978;82;21297;-67
2021/03/12 06:20:58;;;;;;;34.18;14.13;;;;;;;4.64;86.19;97604.62;2178594;81;21728;-66
2021/03/12 06:24:01;;;;;;;29.07;12.13;;;;;;;4.63;86.58;97626.78;2178681;81;21293;-65
2021/03/12 06:27:03;;;;;;;29.52;11.68;;;;;;;4.59;87.02;97657.27;2178587;81;21725;-70
2021/03/12 06:30:05;;;;;;;31.33;11.25;;;;;;;4.58;86.99;97660.78;2178627;81;21260;-66
2021/03/12 06:33:07;;;;;;;29.20;11.53;;;;;;;4.55;87.10;97671.34;2178616;81;21716;-67
2021/03/12 06:36:09;;;;;;;29.87;11.78;;;;;;;4.54;86.96;97670.98;2178516;82;21704;-68
2021/03/12 06:39:11;;;;;;;29.85;11.15;;;;;;;4.55;87.02;97677.84;2178655;81;21273;-68
2021/03/12 06:42:13;;;;;;;31.52;13.20;;;;;;;4.58;86.82;97671.17;2178566;81;21312;-68
2021/03/12 06:45:15;;;;;;;30.52;12.95;;;;;;;4.65;86.49;97666.48;2150694;82;21254;-67
2021/03/12 06:48:17;;;;;;;30.10;12.37;;;;;;;4.75;86.41;97672.84;2150899;82;21293;-67
2021/03/12 06:51:19;;;;;;;29.45;11.73;;;;;;;4.85;86.00;97664.91;2178662;81;21610;-67
2021/03/12 06:54:22;;;;;;;33.92;14.03;;;;;;;4.94;85.65;97683.51;2178707;82;21269;-67
2021/03/12 06:57:24;;;;;;;41.02;17.50;;;;;;;4.98;85.64;97685.84;2178561;81;21139;-67
2021/03/12 07:00:26;;;;;;;38.55;16.67;;;;;;;5.06;85.67;97689.77;2178801;81;21321;-67
2021/03/12 07:03:30;;;;;;;39.30;17.75;;;;;;;5.10;85.22;97699.93;2178568;81;21565;-68
2021/03/12 07:06:32;;;;;;;;;;;;;;;5.11;85.17;97710.67;2181014;81;21735;-68
2021/03/12 07:09:34;;;;;;;41.48;18.40;;;;;;;5.11;85.04;97709.38;2178395;82;20245;-67
2021/03/12 07:12:36;;;;;;;45.10;22.40;;;;;;;5.17;84.88;97715.99;2151042;82;21301;-66
2021/03/12 07:15:38;;;;;;;48.92;21.90;;;;;;;5.26;84.75;97714.19;2178546;81;21285;-68
2021/03/12 07:18:40;;;;;;;42.55;19.35;;;;;;;5.40;84.57;97728.16;2178536;81;21288;-67
2021/03/12 07:21:42;;;;;;;35.00;16.20;;;;;;;5.44;84.34;97731.78;2178478;81;21292;-66
2021/03/12 07:24:44;;;;;;;47.62;20.97;;;;;;;5.42;84.22;97738.84;2151625;82;21273;-67
2021/03/12 07:27:46;;;;;;;39.55;16.10;;;;;;;5.47;84.02;97741.17;2178550;81;21134;-69
2021/03/12 07:30:48;;;;;;;31.40;13.78;;;;;;;5.57;83.92;97742.80;2178761;81;21564;-70
2021/03/12 07:33:50;;;;;;;35.43;15.20;;;;;;;5.57;82.90;97741.02;2151179;82;21302;-69
2021/03/12 07:36:52;;;;;;;30.25;12.90;;;;;;;5.53;83.34;97753.37;2178865;81;21277;-67
2021/03/12 07:39:54;;;;;;;36.35;15.18;;;;;;;5.49;83.01;97756.25;2150769;82;21297;-71
2021/03/12 07:42:56;;;;;;;34.03;14.58;;;;;;;5.45;82.64;97757.34;2178625;81;21603;-71
2021/03/12 07:45:58;;;;;;;33.35;13.68;;;;;;;5.42;82.93;97767.45;2178451;81;21717;-71
2021/03/12 07:49:01;;;;;;;31.17;11.57;;;;;;;5.38;82.82;97771.98;2150837;82;21725;-69
2021/03/12 07:52:03;;;;;;;;;;;;;;;5.36;82.30;97775.14;2181070;81;21722;-70
2021/03/12 07:55:05;;;;;;;32.07;12.20;;;;;;;5.37;82.64;97772.92;2178572;82;20229;-70
2021/03/12 07:58:07;;;;;;;34.85;15.72;;;;;;;5.32;83.24;97784.51;2178515;81;21288;-68
2021/03/12 08:01:09;;;;;;;31.68;13.98;;;;;;;5.23;83.74;97793.66;2162379;81;21203;-71
2021/03/12 08:04:11;;;;;;;22.40;8.38;;;;;;;5.11;84.30;97800.36;2161103;82;21610;-68
2021/03/12 08:07:13;;;;;;;26.27;9.85;;;;;;;4.99;82.53;97804.95;2161089;82;21599;-67
2021/03/12 08:10:15;;;;;;;22.75;7.45;;;;;;;4.85;83.14;97819.50;2161114;82;21163;-67
2021/03/12 08:13:17;;;;;;;23.25;8.38;;;;;;;4.71;83.89;97839.36;2161053;82;21155;-67
2021/03/12 08:16:19;;;;;;;26.10;8.40;;;;;;;4.60;84.59;97819.16;2161138;82;21143;-73
2021/03/12 08:19:21;;;;;;;26.85;10.10;;;;;;;4.55;84.79;97823.74;2161064;82;21135;-69
2021/03/12 08:22:23;;;;;;;27.20;11.10;;;;;;;4.52;84.88;97820.84;2161021;82;21202;-71
2021/03/12 08:25:25;;;;;;;32.60;13.58;;;;;;;4.57;85.29;97820.16;2161053;82;21143;-69
2021/03/12 08:28:27;;;;;;;34.80;15.55;;;;;;;4.60;85.23;97813.50;2161093;82;21103;-67
2021/03/12 08:31:29;;;;;;;40.03;18.57;;;;;;;4.69;85.21;97819.48;2161200;82;21614;-67
2021/03/12 08:34:31;;;;;;;37.42;15.80;;;;;;;4.72;85.30;97830.66;2161060;82;21151;-67
2021/03/12 08:37:33;;;;;;;34.33;14.75;;;;;;;4.81;85.19;97820.62;2161198;82;21155;-67
2021/03/12 08:40:35;;;;;;;35.05;15.78;;;;;;;4.94;85.00;97828.59;2161061;82;21618;-69
2021/03/12 08:43:37;;;;;;;30.68;13.55;;;;;;;5.08;85.16;97820.02;2160997;82;21611;-66
2021/03/12 08:46:39;;;;;;;33.48;12.98;;;;;;;5.22;84.44;97823.66;2161024;82;21598;-68
2021/03/12 08:49:41;;;;;;;31.70;11.15;;;;;;;5.25;83.34;97838.61;2161040;82;21269;-70
2021/03/12 08:52:43;;;;;;;29.10;8.88;;;;;;;5.31;83.26;97834.36;2161324;82;21686;-70
2021/03/12 08:55:45;;;;;;;24.27;7.60;;;;;;;5.30;82.03;97843.10;2161163;82;21154;-68
2021/03/12 08:58:47;;;;;;;25.00;8.38;;;;;;;5.23;82.79;97857.80;2161344;81;21175;-67
2021/03/12 09:01:50;;;;;;;22.40;7.22;;;;;;;5.14;83.47;97862.61;2161037;82;21575;-66
2021/03/12 09:04:51;;;;;;;21.45;6.60;;;;;;;4.97;83.37;97870.45;2161134;82;21143;-67
2021/03/12 09:07:53;;;;;;;24.02;7.58;;;;;;;4.86;83.74;97851.55;2161063;82;21162;-68
2021/03/12 09:10:56;;;;;;;25.45;7.20;;;;;;;4.84;84.39;97849.03;2161225;82;21174;-68
2021/03/12 09:13:58;;;;;;;25.72;8.95;;;;;;;4.86;83.70;97848.47;2161052;82;21159;-67
2021/03/12 09:17:00;;;;;;;23.92;7.55;;;;;;;4.99;83.42;97844.76;2140061;82;21610;-66
2021/03/12 09:20:02;;;;;;;21.45;6.37;;;;;;;5.23;82.95;97860.41;2161062;82;21104;-69
2021/03/12 09:23:04;;;;;;;22.67;7.05;;;;;;;5.45;82.95;97853.58;2161030;82;21567;-68
2021/03/12 09:26:06;;;;;;;19.75;6.42;;;;;;;5.57;82.56;97858.55;2161135;82;21155;-68
2021/03/12 09:29:08;;;;;;;22.45;6.65;;;;;;;5.81;82.79;97856.33;2161224;82;21278;-69
2021/03/12 09:32:10;;;;;;;23.77;7.40;;;;;;;5.77;80.88;97853.05;2161207;82;21269;-69
2021/03/12 09:35:12;;;;;;;23.35;7.62;;;;;;;5.78;82.72;97858.64;2139020;82;21590;-70
2021/03/12 09:38:14;;;;;;;22.07;7.42;;;;;;;5.79;81.80;97860.77;2161290;82;21132;-68
2021/03/12 09:41:17;;;;;;;24.40;7.78;;;;;;;5.56;82.41;97873.33;2161549;82;21313;-69
2021/03/12 09:44:19;;;;;;;20.57;6.90;;;;;;;5.32;83.93;97888.05;2161237;82;21289;-67
2021/03/12 09:47:21;;;;;;;21.80;7.45;;;;;;;5.11;85.27;97907.41;2161250;82;21701;-67
2021/03/12 09:50:24;;;;;;;22.73;7.33;;;;;;;4.86;85.97;97905.64;2161218;82;21775;-67
2021/03/12 09:53:26;;;;;;;19.52;6.08;;;;;;;4.68;87.80;97928.67;2138822;82;21733;-66
2021/03/12 09:56:28;;;;;;;12.82;3.90;;;;;;;4.49;86.77;97941.77;2161180;82;21270;-66
2021/03/12 09:59:30;;;;;;;13.80;3.55;;;;;;;4.03;84.75;97950.53;2164188;81;21159;-66
2021/03/12 10:02:33;;;;;;;14.80;4.20;;;;;;;3.54;87.96;97949.33;2178657;81;21709;-66
2021/03/12 10:05:35;;;;;;;11.03;3.45;;;;;;;3.30;88.30;97937.04;2178664;81;21755;-68
2021/03/12 10:08:37;;;;;;;12.35;3.45;;;;;;;3.27;88.51;97947.08;2178738;81;21257;-66
2021/03/12 10:11:39;;;;;;;17.05;4.10;;;;;;;3.32;87.95;97932.64;2178641;81;21280;-66
2021/03/12 10:14:41;;;;;;;17.00;4.40;;;;;;;3.43;88.68;97943.37;2178617;81;21268;-66
2021/03/12 10:17:43;;;;;;;16.75;4.30;;;;;;;3.49;88.55;97952.58;2178624;81;21146;-66
2021/03/12 10:20:45;;;;;;;13.13;3.20;;;;;;;3.50;88.58;97954.73;2178867;81;21530;-67
2021/03/12 10:23:47;;;;;;;15.32;3.35;;;;;;;3.45;88.02;97975.23;2178604;81;21768;-67
2021/03/12 10:26:50;;;;;;;15.13;3.47;;;;;;;3.32;88.21;97979.30;2178570;81;21716;-66
2021/03/12 10:29:52;;;;;;;12.50;3.05;;;;;;;3.26;88.37;97991.22;2178450;81;21288;-67
2021/03/12 10:32:54;;;;;;;14.95;3.55;;;;;;;3.14;88.21;97984.84;2178577;81;21292;-66
2021/03/12 10:35:57;;;;;;;11.93;3.02;;;;;;;3.04;88.14;97993.92;2178774;81;21697;-66
2021/03/12 10:38:59;;;;;;;;;;;;;;;2.94;88.35;97984.41;2181095;81;21284;-66
2021/03/12 10:42:01;;;;;;;19.80;4.60;;;;;;;2.85;88.47;97989.54;2178685;82;20149;-68
2021/03/12 10:45:03;;;;;;;17.20;4.10;;;;;;;2.85;88.68;97988.71;2178576;81;21277;-66
2021/03/12 10:48:05;;;;;;;13.58;3.95;;;;;;;2.88;88.75;97993.75;2178609;81;21269;-66
2021/03/12 10:51:07;;;;;;;16.42;4.42;;;;;;;2.93;88.86;97997.83;2178579;81;21568;-66
2021/03/12 10:54:13;;;;;;;16.37;4.12;;;;;;;3.01;88.73;97991.02;2150302;82;22272;-67
2021/03/12 10:57:15;;;;;;;16.27;4.25;;;;;;;3.24;88.96;97990.46;2178786;81;21138;-67
2021/03/12 11:00:17;;;;;;;19.27;4.40;;;;;;;3.68;88.85;97995.82;2178731;81;21333;-69
2021/03/12 11:03:20;;;;;;;18.95;5.33;;;;;;;4.03;87.34;97992.88;2178521;81;21122;-66
2021/03/12 11:06:22;;;;;;;19.73;6.03;;;;;;;3.96;87.19;97985.83;2178409;81;21289;-66
2021/03/12 11:09:24;;;;;;;16.40;3.95;;;;;;;3.92;87.21;97992.11;2178809;82;21149;-66
2021/03/12 11:12:26;;;;;;;17.15;4.58;;;;;;;3.90;86.08;98007.36;2178820;81;21150;-66
2021/03/12 11:15:28;;;;;;;18.07;4.83;;;;;;;3.84;86.86;98001.17;2178545;81;21736;-69
2021/03/12 11:18:31;;;;;;;16.12;5.17;;;;;;;3.87;87.24;98003.61;2178582;81;21141;-66
2021/03/12 11:21:33;;;;;;;18.92;5.67;;;;;;;3.98;88.06;98017.76;2178622;82;21713;-66
2021/03/12 11:24:36;;;;;;;22.07;5.45;;;;;;;4.10;87.13;97997.33;2178536;81;21272;-67
2021/03/12 11:27:38;;;;;;;19.85;5.20;;;;;;;4.15;87.54;98009.17;2178535;81;21761;-66
2021/03/12 11:30:40;;;;;;;23.05;6.08;;;;;;;4.18;87.01;98004.73;2178465;81;21284;-66
2021/03/12 11:33:42;;;;;;;22.10;6.55;;;;;;;4.14;85.76;98020.46;2178513;81;21129;-66
2021/03/12 11:36:44;;;;;;;30.62;8.23;;;;;;;4.14;86.78;98020.46;2178511;81;21304;-67
2021/03/12 11:39:46;;;;;;;20.52;5.67;;;;;;;4.14;86.67;98023.06;2178786;81;21578;-69
2021/03/12 11:42:48;;;;;;;18.98;5.30;;;;;;;4.13;86.19;98028.33;2178507;81;21595;-67
2021/03/12 11:45:50;;;;;;;18.50;5.65;;;;;;;4.08;86.39;98032.45;2178487;81;21146;-67
2021/03/12 11:48:52;;;;;;;19.12;5.28;;;;;;;4.10;87.17;98025.41;2178517;81;21151;-67
2021/03/12 11:51:54;;;;;;;17.80;5.35;;;;;;;4.19;86.28;98026.73;2178847;81;21139;-69
2021/03/12 11:54:56;;;;;;;16.73;4.70;;;;;;;4.26;86.44;98029.41;2178510;81;21136;-68
2021/03/12 11:57:59;;;;;;;19.15;5.17;;;;;;;4.44;86.29;98021.20;2178685;81;21169;-67
2021/03/12 12:01:01;;;;;;;17.92;5.08;;;;;;;4.74;85.97;98012.81;2146498;82;21269;-67
2021/03/12 12:04:03;;;;;;;17.05;5.22;;;;;;;4.88;85.30;98017.30;2171708;82;21154;-67
2021/03/12 12:07:05;;;;;;;18.02;5.33;;;;;;;4.93;84.34;98020.95;2171503;82;21293;-67
2021/03/12 12:10:08;;;;;;;18.90;5.40;;;;;;;4.97;85.15;98022.05;2171363;82;21276;-69
2021/03/12 12:13:10;;;;;;;19.73;4.97;;;;;;;5.26;83.87;98021.44;2171234;82;21146;-72
2021/03/12 12:16:12;;;;;;;16.85;4.83;;;;;;;5.54;81.52;98020.83;2171179;82;21266;-69
2021/03/12 12:19:16;;;;;;;15.80;4.40;;;;;;;6.10;84.65;98013.97;2171360;82;21137;-67
2021/03/12 12:22:18;;;;;;;14.58;4.28;;;;;;;6.65;80.74;98026.92;2171059;82;21792;-67
2021/03/12 12:25:20;;;;;;;17.35;4.62;;;;;;;6.68;77.63;98033.25;2171178;82;21123;-67
2021/03/12 12:28:22;;;;;;;16.95;4.33;;;;;;;6.49;77.45;98047.80;2171255;82;21148;-66
2021/03/12 12:31:24;;;;;;;18.12;4.22;;;;;;;6.20;77.77;98064.13;2171368;82;21278;-66
2021/03/12 12:34:26;;;;;;;12.73;3.60;;;;;;;6.01;78.16;98058.27;2171224;82;21716;-67
2021/03/12 12:37:28;;;;;;;13.65;4.30;;;;;;;5.99;78.40;98050.55;2171260;82;21136;-68
2021/03/12 12:40:30;;;;;;;14.95;3.62;;;;;;;6.06;78.91;98053.64;2171228;82;21741;-66
2021/03/12 12:43:32;;;;;;;13.50;3.40;;;;;;;6.04;76.67;98065.91;2171211;82;21159;-67
2021/03/12 12:46:34;;;;;;;10.43;3.33;;;;;;;5.93;76.84;98049.53;2141599;82;21272;-68
2021/03/12 12:49:36;;;;;;;11.80;3.70;;;;;;;5.94;77.40;98056.90;2171328;82;21694;-67
2021/03/12 12:52:38;;;;;;;12.40;3.45;;;;;;;6.07;78.53;98038.40;2171172;82;21289;-70
2021/03/12 12:55:41;;;;;;;13.22;3.90;;;;;;;6.15;77.07;98039.27;2171637;82;21277;-73
2021/03/12 12:58:44;;;;;;;14.90;4.00;;;;;;;6.20;77.78;98031.58;2171068;82;21249;-69
2021/03/12 13:01:46;;;;;;;;;;;;;;;6.62;77.42;98033.61;2156187;81;21284;-69
2021/03/12 13:04:48;;;;;;;12.98;3.70;;;;;;;6.52;75.23;98024.17;2159873;81;20157;-68
2021/03/12 13:07:50;;;;;;;14.07;3.87;;;;;;;6.46;77.60;98016.25;2160106;81;21690;-67
2021/03/12 13:10:53;;;;;;;14.05;3.77;;;;;;;6.52;75.78;98028.09;2188089;81;21146;-67
2021/03/12 13:13:55;;;;;;;14.25;3.52;;;;;;;6.40;75.22;98030.94;2159200;81;21133;-69
2021/03/12 13:16:57;;;;;;;10.03;3.47;;;;;;;6.31;76.48;98041.41;2187971;81;21645;-68
2021/03/12 13:20:00;;;;;;;18.60;4.58;;;;;;;6.12;75.80;98047.25;2160191;81;21705;-71
2021/03/12 13:23:02;;;;;;;15.63;4.20;;;;;;;5.95;78.26;98065.06;2188034;81;21138;-67
2021/03/12 13:26:04;;;;;;;15.65;4.12;;;;;;;5.63;79.24;98067.63;2160219;81;21126;-69
2021/03/12 13:29:06;;;;;;;15.83;3.90;;;;;;;5.35;81.46;98059.98;2188356;81;21260;-67
2021/03/12 13:32:08;;;;;;;16.07;4.28;;;;;;;5.40;84.71;98057.97;2188460;81;21147;-67
2021/03/12 13:35:10;;;;;;;17.15;5.40;;;;;;;5.99;84.57;98058.36;2188082;81;21585;-68
2021/03/12 13:38:12;;;;;;;18.23;5.42;;;;;;;6.38;82.26;98051.86;2188225;81;21262;-68
2021/03/12 13:41:16;;;;;;;20.48;5.45;;;;;;;6.62;81.78;98066.19;2188033;81;21704;-66
2021/03/12 13:44:19;;;;;;;20.75;6.60;;;;;;;6.40;79.79;98063.50;2187957;81;21127;-66
2021/03/12 13:47:21;;;;;;;20.05;6.12;;;;;;;6.18;81.91;98062.09;2188147;81;21304;-66
2021/03/12 13:50:23;;;;;;;20.32;6.25;;;;;;;6.09;81.07;98064.35;2188091;81;21146;-67
2021/03/12 13:53:25;;;;;;;26.57;8.90;;;;;;;5.93;80.66;98068.22;2188177;81;21280;-67
2021/03/12 13:56:27;;;;;;;25.08;7.65;;;;;;;5.77;80.79;98069.52;2188081;81;21141;-67
2021/03/12 13:59:29;;;;;;;30.05;12.30;;;;;;;5.76;81.20;98069.98;2188200;81;21578;-67
2021/03/12 14:02:31;;;;;;;32.98;10.68;;;;;;;5.86;81.37;98069.86;2180066;81;21296;-66
2021/03/12 14:05:33;;;;;;;24.63;8.00;;;;;;;6.02;80.23;98071.64;2178653;82;21590;-67
2021/03/12 14:08:35;;;;;;;24.15;8.18;;;;;;;6.71;77.72;98082.59;2178558;81;21134;-66
2021/03/12 14:11:37;;;;;;;20.85;5.80;;;;;;;7.24;80.12;98068.22;2178482;81;21134;-67